sensor_id;sensor_type;location;lat;lon;timestamp;temperature;humidity
10538;DHT22;5317;49.048;8.468;2023-08-06T00:00:42;21.20;84.90
10538;DHT22;5317;49.048;8.468;2023-08-06T00:03:09;21.30;85.00
10538;DHT22;5317;49.048;8.468;2023-08-06T00:05:36;21.20;84.70
10538;DHT22;5317;49.048;8.468;2023-08-06T00:08:03;21.30;84.60
10538;DHT22;5317;49.048;8.468;2023-08-06T00:10:30;21.30;84.60
10538;DHT22;5317;49.048;8.468;2023-08-06T00:12:57;21.30;84.40
10538;DHT22;5317;49.048;8.468;2023-08-06T00:15:23;21.30;84.10
10538;DHT22;5317;49.048;8.468;2023-08-06T00:17:52;21.30;84.00
10538;DHT22;5317;49.048;8.468;2023-08-06T00:20:19;21.30;84.00
10538;DHT22;5317;49.048;8.468;2023-08-06T00:22:46;21.30;83.60
10538;DHT22;5317;49.048;8.468;2023-08-06T00:25:13;21.30;84.20
10538;DHT22;5317;49.048;8.468;2023-08-06T00:27:39;21.30;82.60
10538;DHT22;5317;49.048;8.468;2023-08-06T00:30:07;21.30;82.60
10538;DHT22;5317;49.048;8.468;2023-08-06T00:32:34;21.30;82.40
10538;DHT22;5317;49.048;8.468;2023-08-06T00:35:02;21.30;82.00
10538;DHT22;5317;49.048;8.468;2023-08-06T00:37:29;21.30;81.90
10538;DHT22;5317;49.048;8.468;2023-08-06T00:39:56;21.30;82.00
10538;DHT22;5317;49.048;8.468;2023-08-06T00:42:23;21.20;81.90
10538;DHT22;5317;49.048;8.468;2023-08-06T00:44:50;21.30;82.10
10538;DHT22;5317;49.048;8.468;2023-08-06T00:47:17;21.30;82.20
10538;DHT22;5317;49.048;8.468;2023-08-06T00:49:44;21.30;82.30
10538;DHT22;5317;49.048;8.468;2023-08-06T00:52:12;21.30;82.50
10538;DHT22;5317;49.048;8.468;2023-08-06T00:54:39;21.20;82.50
10538;DHT22;5317;49.048;8.468;2023-08-06T00:57:07;21.20;82.50
10538;DHT22;5317;49.048;8.468;2023-08-06T00:59:35;21.20;82.70
10538;DHT22;5317;49.048;8.468;2023-08-06T01:02:02;21.20;82.70
10538;DHT22;5317;49.048;8.468;2023-08-06T01:04:29;21.20;82.50
10538;DHT22;5317;49.048;8.468;2023-08-06T01:07:05;21.20;83.00
10538;DHT22;5317;49.048;8.468;2023-08-06T01:09:43;21.20;83.00
10538;DHT22;5317;49.048;8.468;2023-08-06T01:12:21;21.20;82.90
10538;DHT22;5317;49.048;8.468;2023-08-06T01:14:57;21.30;83.40
10538;DHT22;5317;49.048;8.468;2023-08-06T01:17:26;21.20;83.60
10538;DHT22;5317;49.048;8.468;2023-08-06T01:19:53;21.20;83.00
10538;DHT22;5317;49.048;8.468;2023-08-06T01:22:21;21.20;83.90
10538;DHT22;5317;49.048;8.468;2023-08-06T01:24:50;21.10;84.00
10538;DHT22;5317;49.048;8.468;2023-08-06T01:27:23;21.10;84.00
10538;DHT22;5317;49.048;8.468;2023-08-06T01:29:57;21.10;84.20
10538;DHT22;5317;49.048;8.468;2023-08-06T01:32:30;21.10;84.50
10538;DHT22;5317;49.048;8.468;2023-08-06T01:34:59;21.10;84.50
10538;DHT22;5317;49.048;8.468;2023-08-06T01:37:28;21.10;84.40
10538;DHT22;5317;49.048;8.468;2023-08-06T01:39:55;21.10;84.20
10538;DHT22;5317;49.048;8.468;2023-08-06T01:42:22;21.10;82.80
10538;DHT22;5317;49.048;8.468;2023-08-06T01:44:49;21.00;82.90
10538;DHT22;5317;49.048;8.468;2023-08-06T01:47:16;21.10;83.50
10538;DHT22;5317;49.048;8.468;2023-08-06T01:49:43;21.10;83.60
10538;DHT22;5317;49.048;8.468;2023-08-06T01:52:10;21.10;82.90
10538;DHT22;5317;49.048;8.468;2023-08-06T01:54:38;21.10;82.10
10538;DHT22;5317;49.048;8.468;2023-08-06T01:57:05;21.00;82.10
10538;DHT22;5317;49.048;8.468;2023-08-06T01:59:32;21.00;82.30
10538;DHT22;5317;49.048;8.468;2023-08-06T02:01:59;21.00;81.60
10538;DHT22;5317;49.048;8.468;2023-08-06T02:04:26;20.90;80.70
10538;DHT22;5317;49.048;8.468;2023-08-06T02:06:52;20.90;81.20
10538;DHT22;5317;49.048;8.468;2023-08-06T02:09:19;20.80;80.80
10538;DHT22;5317;49.048;8.468;2023-08-06T02:11:47;20.70;80.90
10538;DHT22;5317;49.048;8.468;2023-08-06T02:14:14;20.70;81.10
10538;DHT22;5317;49.048;8.468;2023-08-06T02:16:41;20.60;81.00
10538;DHT22;5317;49.048;8.468;2023-08-06T02:19:08;20.60;81.00
10538;DHT22;5317;49.048;8.468;2023-08-06T02:21:35;20.60;81.70
10538;DHT22;5317;49.048;8.468;2023-08-06T02:24:02;20.70;81.20
10538;DHT22;5317;49.048;8.468;2023-08-06T02:26:29;20.60;81.20
10538;DHT22;5317;49.048;8.468;2023-08-06T02:28:57;20.60;81.60
10538;DHT22;5317;49.048;8.468;2023-08-06T02:31:24;20.70;81.70
10538;DHT22;5317;49.048;8.468;2023-08-06T02:33:50;20.70;81.50
10538;DHT22;5317;49.048;8.468;2023-08-06T02:36:19;20.70;81.40
10538;DHT22;5317;49.048;8.468;2023-08-06T02:38:46;20.80;81.50
10538;DHT22;5317;49.048;8.468;2023-08-06T02:41:13;20.80;81.20
10538;DHT22;5317;49.048;8.468;2023-08-06T02:43:40;20.80;81.50
10538;DHT22;5317;49.048;8.468;2023-08-06T02:46:08;20.70;81.40
10538;DHT22;5317;49.048;8.468;2023-08-06T02:48:35;20.60;81.50
10538;DHT22;5317;49.048;8.468;2023-08-06T02:51:02;20.50;81.60
10538;DHT22;5317;49.048;8.468;2023-08-06T02:53:29;20.50;81.70
10538;DHT22;5317;49.048;8.468;2023-08-06T02:55:57;20.30;82.10
10538;DHT22;5317;49.048;8.468;2023-08-06T02:58:24;20.30;82.60
10538;DHT22;5317;49.048;8.468;2023-08-06T03:01:00;20.10;82.70
10538;DHT22;5317;49.048;8.468;2023-08-06T03:03:29;20.00;83.30
10538;DHT22;5317;49.048;8.468;2023-08-06T03:05:57;19.90;83.40
10538;DHT22;5317;49.048;8.468;2023-08-06T03:08:24;19.80;83.80
10538;DHT22;5317;49.048;8.468;2023-08-06T03:10:51;19.80;84.10
10538;DHT22;5317;49.048;8.468;2023-08-06T03:13:18;19.80;84.00
10538;DHT22;5317;49.048;8.468;2023-08-06T03:15:52;19.80;84.00
10538;DHT22;5317;49.048;8.468;2023-08-06T03:18:19;19.70;84.40
10538;DHT22;5317;49.048;8.468;2023-08-06T03:20:48;19.70;84.80
10538;DHT22;5317;49.048;8.468;2023-08-06T03:23:15;19.70;85.00
10538;DHT22;5317;49.048;8.468;2023-08-06T03:25:42;19.70;85.10
10538;DHT22;5317;49.048;8.468;2023-08-06T03:28:08;19.70;85.20
10538;DHT22;5317;49.048;8.468;2023-08-06T03:30:35;19.70;85.00
10538;DHT22;5317;49.048;8.468;2023-08-06T03:33:02;19.70;84.90
10538;DHT22;5317;49.048;8.468;2023-08-06T03:35:29;19.70;85.10
10538;DHT22;5317;49.048;8.468;2023-08-06T03:37:57;19.60;85.00
10538;DHT22;5317;49.048;8.468;2023-08-06T03:40:26;19.70;84.60
10538;DHT22;5317;49.048;8.468;2023-08-06T03:42:53;19.80;84.50
10538;DHT22;5317;49.048;8.468;2023-08-06T03:45:20;19.70;84.20
10538;DHT22;5317;49.048;8.468;2023-08-06T03:47:46;19.60;84.20
10538;DHT22;5317;49.048;8.468;2023-08-06T03:50:13;19.60;84.20
10538;DHT22;5317;49.048;8.468;2023-08-06T03:52:40;19.60;84.20
10538;DHT22;5317;49.048;8.468;2023-08-06T03:55:08;19.60;85.00
10538;DHT22;5317;49.048;8.468;2023-08-06T03:57:35;19.60;84.10
10538;DHT22;5317;49.048;8.468;2023-08-06T04:00:02;19.60;84.00
10538;DHT22;5317;49.048;8.468;2023-08-06T04:02:29;19.50;83.90
10538;DHT22;5317;49.048;8.468;2023-08-06T04:04:56;19.50;84.10
10538;DHT22;5317;49.048;8.468;2023-08-06T04:07:24;19.50;83.80
10538;DHT22;5317;49.048;8.468;2023-08-06T04:09:53;19.40;84.10
10538;DHT22;5317;49.048;8.468;2023-08-06T04:12:21;19.40;84.40
10538;DHT22;5317;49.048;8.468;2023-08-06T04:14:49;19.50;84.10
10538;DHT22;5317;49.048;8.468;2023-08-06T04:17:16;19.50;84.40
10538;DHT22;5317;49.048;8.468;2023-08-06T04:19:46;19.50;83.30
10538;DHT22;5317;49.048;8.468;2023-08-06T04:22:13;19.50;83.30
10538;DHT22;5317;49.048;8.468;2023-08-06T04:24:39;19.50;83.40
10538;DHT22;5317;49.048;8.468;2023-08-06T04:27:07;19.50;83.30
10538;DHT22;5317;49.048;8.468;2023-08-06T04:29:35;19.60;83.40
10538;DHT22;5317;49.048;8.468;2023-08-06T04:32:05;19.60;82.70
10538;DHT22;5317;49.048;8.468;2023-08-06T04:34:32;19.50;83.20
10538;DHT22;5317;49.048;8.468;2023-08-06T04:37:01;19.60;83.30
10538;DHT22;5317;49.048;8.468;2023-08-06T04:39:28;19.60;82.90
10538;DHT22;5317;49.048;8.468;2023-08-06T04:41:55;19.70;83.20
10538;DHT22;5317;49.048;8.468;2023-08-06T04:44:23;19.70;83.80
10538;DHT22;5317;49.048;8.468;2023-08-06T04:46:51;19.70;83.00
10538;DHT22;5317;49.048;8.468;2023-08-06T04:49:19;19.60;82.90
10538;DHT22;5317;49.048;8.468;2023-08-06T04:51:46;19.50;83.20
10538;DHT22;5317;49.048;8.468;2023-08-06T04:54:13;19.60;83.50
10538;DHT22;5317;49.048;8.468;2023-08-06T04:56:39;19.60;82.90
10538;DHT22;5317;49.048;8.468;2023-08-06T04:59:06;19.50;83.20
10538;DHT22;5317;49.048;8.468;2023-08-06T05:01:33;19.50;83.00
10538;DHT22;5317;49.048;8.468;2023-08-06T05:04:01;19.50;83.50
10538;DHT22;5317;49.048;8.468;2023-08-06T05:06:28;19.40;84.20
10538;DHT22;5317;49.048;8.468;2023-08-06T05:08:55;19.40;83.40
10538;DHT22;5317;49.048;8.468;2023-08-06T05:11:22;19.50;83.60
10538;DHT22;5317;49.048;8.468;2023-08-06T05:13:49;19.50;83.50
10538;DHT22;5317;49.048;8.468;2023-08-06T05:16:16;19.60;83.50
10538;DHT22;5317;49.048;8.468;2023-08-06T05:18:43;19.60;83.50
10538;DHT22;5317;49.048;8.468;2023-08-06T05:21:11;19.60;83.50
10538;DHT22;5317;49.048;8.468;2023-08-06T05:23:38;19.60;83.40
10538;DHT22;5317;49.048;8.468;2023-08-06T05:26:04;19.60;83.90
10538;DHT22;5317;49.048;8.468;2023-08-06T05:28:31;19.50;84.60
10538;DHT22;5317;49.048;8.468;2023-08-06T05:30:58;19.60;85.10
10538;DHT22;5317;49.048;8.468;2023-08-06T05:33:25;19.60;85.00
10538;DHT22;5317;49.048;8.468;2023-08-06T05:35:52;19.50;85.20
10538;DHT22;5317;49.048;8.468;2023-08-06T05:38:20;19.40;85.90
10538;DHT22;5317;49.048;8.468;2023-08-06T05:40:47;19.40;86.20
10538;DHT22;5317;49.048;8.468;2023-08-06T05:43:14;19.40;86.30
10538;DHT22;5317;49.048;8.468;2023-08-06T05:45:44;19.30;86.60
10538;DHT22;5317;49.048;8.468;2023-08-06T05:48:11;19.30;87.50
10538;DHT22;5317;49.048;8.468;2023-08-06T05:50:38;19.20;87.40
10538;DHT22;5317;49.048;8.468;2023-08-06T05:53:05;19.20;87.90
10538;DHT22;5317;49.048;8.468;2023-08-06T05:55:33;19.20;88.20
10538;DHT22;5317;49.048;8.468;2023-08-06T05:58:01;19.20;88.40
10538;DHT22;5317;49.048;8.468;2023-08-06T06:00:27;19.20;88.30
10538;DHT22;5317;49.048;8.468;2023-08-06T06:02:54;19.10;88.50
10538;DHT22;5317;49.048;8.468;2023-08-06T06:05:21;19.10;88.80
10538;DHT22;5317;49.048;8.468;2023-08-06T06:07:48;19.10;88.90
10538;DHT22;5317;49.048;8.468;2023-08-06T06:10:15;19.00;88.90
10538;DHT22;5317;49.048;8.468;2023-08-06T06:12:43;19.10;89.70
10538;DHT22;5317;49.048;8.468;2023-08-06T06:15:10;19.10;88.90
10538;DHT22;5317;49.048;8.468;2023-08-06T06:17:36;19.00;88.80
10538;DHT22;5317;49.048;8.468;2023-08-06T06:20:04;19.10;89.00
10538;DHT22;5317;49.048;8.468;2023-08-06T06:22:31;19.20;88.80
10538;DHT22;5317;49.048;8.468;2023-08-06T06:24:58;19.20;88.30
10538;DHT22;5317;49.048;8.468;2023-08-06T06:27:25;19.20;88.00
10538;DHT22;5317;49.048;8.468;2023-08-06T06:29:53;19.20;87.90
10538;DHT22;5317;49.048;8.468;2023-08-06T06:32:21;19.20;87.70
10538;DHT22;5317;49.048;8.468;2023-08-06T06:34:48;19.10;88.00
10538;DHT22;5317;49.048;8.468;2023-08-06T06:37:14;19.20;87.40
10538;DHT22;5317;49.048;8.468;2023-08-06T06:39:41;19.10;87.10
10538;DHT22;5317;49.048;8.468;2023-08-06T06:42:09;19.00;87.10
10538;DHT22;5317;49.048;8.468;2023-08-06T06:44:36;19.00;87.30
10538;DHT22;5317;49.048;8.468;2023-08-06T06:47:05;19.00;87.70
10538;DHT22;5317;49.048;8.468;2023-08-06T06:49:31;19.00;87.80
10538;DHT22;5317;49.048;8.468;2023-08-06T06:51:58;18.90;87.70
10538;DHT22;5317;49.048;8.468;2023-08-06T06:54:25;18.90;87.60
10538;DHT22;5317;49.048;8.468;2023-08-06T06:56:52;19.00;87.60
10538;DHT22;5317;49.048;8.468;2023-08-06T06:59:19;19.10;87.40
10538;DHT22;5317;49.048;8.468;2023-08-06T07:01:45;19.00;87.40
10538;DHT22;5317;49.048;8.468;2023-08-06T07:04:14;19.10;88.00
10538;DHT22;5317;49.048;8.468;2023-08-06T07:06:40;19.10;88.00
10538;DHT22;5317;49.048;8.468;2023-08-06T07:09:07;19.10;87.70
10538;DHT22;5317;49.048;8.468;2023-08-06T07:11:34;19.10;88.10
10538;DHT22;5317;49.048;8.468;2023-08-06T07:14:01;19.00;88.40
10538;DHT22;5317;49.048;8.468;2023-08-06T07:16:28;19.00;88.20
10538;DHT22;5317;49.048;8.468;2023-08-06T07:18:54;19.00;88.30
10538;DHT22;5317;49.048;8.468;2023-08-06T07:21:22;19.00;88.30
10538;DHT22;5317;49.048;8.468;2023-08-06T07:23:49;19.10;88.20
10538;DHT22;5317;49.048;8.468;2023-08-06T07:26:16;19.10;88.20
10538;DHT22;5317;49.048;8.468;2023-08-06T07:28:43;19.00;88.00
10538;DHT22;5317;49.048;8.468;2023-08-06T07:31:10;19.10;88.10
10538;DHT22;5317;49.048;8.468;2023-08-06T07:33:37;19.10;88.30
10538;DHT22;5317;49.048;8.468;2023-08-06T07:36:08;19.00;87.60
10538;DHT22;5317;49.048;8.468;2023-08-06T07:38:37;19.00;87.80
10538;DHT22;5317;49.048;8.468;2023-08-06T07:41:04;19.00;87.70
10538;DHT22;5317;49.048;8.468;2023-08-06T07:43:31;19.00;87.80
10538;DHT22;5317;49.048;8.468;2023-08-06T07:45:58;19.00;88.20
10538;DHT22;5317;49.048;8.468;2023-08-06T07:48:26;19.00;88.20
10538;DHT22;5317;49.048;8.468;2023-08-06T07:50:52;19.10;88.50
10538;DHT22;5317;49.048;8.468;2023-08-06T07:53:20;19.10;88.50
10538;DHT22;5317;49.048;8.468;2023-08-06T07:55:50;19.10;88.30
10538;DHT22;5317;49.048;8.468;2023-08-06T07:58:17;19.20;89.00
10538;DHT22;5317;49.048;8.468;2023-08-06T08:00:44;19.20;88.70
10538;DHT22;5317;49.048;8.468;2023-08-06T08:03:11;19.20;88.50
10538;DHT22;5317;49.048;8.468;2023-08-06T08:05:39;19.30;88.90
10538;DHT22;5317;49.048;8.468;2023-08-06T08:08:06;19.20;89.10
10538;DHT22;5317;49.048;8.468;2023-08-06T08:10:33;19.20;89.60
10538;DHT22;5317;49.048;8.468;2023-08-06T08:13:03;19.20;89.90
10538;DHT22;5317;49.048;8.468;2023-08-06T08:15:30;19.20;90.00
10538;DHT22;5317;49.048;8.468;2023-08-06T08:17:57;19.20;90.30
10538;DHT22;5317;49.048;8.468;2023-08-06T08:20:24;19.10;90.10
10538;DHT22;5317;49.048;8.468;2023-08-06T08:22:57;19.10;90.20
10538;DHT22;5317;49.048;8.468;2023-08-06T08:25:24;19.10;90.40
10538;DHT22;5317;49.048;8.468;2023-08-06T08:27:51;19.10;90.40
10538;DHT22;5317;49.048;8.468;2023-08-06T08:30:19;19.20;90.50
10538;DHT22;5317;49.048;8.468;2023-08-06T08:32:46;19.20;90.60
10538;DHT22;5317;49.048;8.468;2023-08-06T08:35:13;19.20;90.50
10538;DHT22;5317;49.048;8.468;2023-08-06T08:37:41;19.20;90.10
10538;DHT22;5317;49.048;8.468;2023-08-06T08:40:09;19.10;90.40
10538;DHT22;5317;49.048;8.468;2023-08-06T08:42:36;19.00;90.50
10538;DHT22;5317;49.048;8.468;2023-08-06T08:45:04;19.00;90.70
10538;DHT22;5317;49.048;8.468;2023-08-06T08:47:35;19.00;90.60
10538;DHT22;5317;49.048;8.468;2023-08-06T08:50:04;19.00;90.90
10538;DHT22;5317;49.048;8.468;2023-08-06T08:52:32;18.90;90.60
10538;DHT22;5317;49.048;8.468;2023-08-06T08:55:01;19.00;90.90
10538;DHT22;5317;49.048;8.468;2023-08-06T08:57:28;19.10;90.90
10538;DHT22;5317;49.048;8.468;2023-08-06T08:59:55;19.10;90.70
10538;DHT22;5317;49.048;8.468;2023-08-06T09:02:25;19.10;91.10
10538;DHT22;5317;49.048;8.468;2023-08-06T09:04:55;19.20;91.10
10538;DHT22;5317;49.048;8.468;2023-08-06T09:07:23;19.30;91.10
10538;DHT22;5317;49.048;8.468;2023-08-06T09:09:51;19.30;91.00
10538;DHT22;5317;49.048;8.468;2023-08-06T09:12:19;19.40;91.10
10538;DHT22;5317;49.048;8.468;2023-08-06T09:14:45;19.40;90.90
10538;DHT22;5317;49.048;8.468;2023-08-06T09:17:12;19.40;90.90
10538;DHT22;5317;49.048;8.468;2023-08-06T09:19:41;19.40;91.00
10538;DHT22;5317;49.048;8.468;2023-08-06T09:22:13;19.50;90.90
10538;DHT22;5317;49.048;8.468;2023-08-06T09:24:41;19.60;90.90
10538;DHT22;5317;49.048;8.468;2023-08-06T09:27:11;19.70;90.80
10538;DHT22;5317;49.048;8.468;2023-08-06T09:29:41;19.70;91.00
10538;DHT22;5317;49.048;8.468;2023-08-06T09:32:08;19.80;90.70
10538;DHT22;5317;49.048;8.468;2023-08-06T09:34:35;19.80;90.60
10538;DHT22;5317;49.048;8.468;2023-08-06T09:37:05;19.90;90.60
10538;DHT22;5317;49.048;8.468;2023-08-06T09:39:33;19.80;90.50
10538;DHT22;5317;49.048;8.468;2023-08-06T09:42:01;19.90;90.70
10538;DHT22;5317;49.048;8.468;2023-08-06T09:44:30;19.90;90.60
10538;DHT22;5317;49.048;8.468;2023-08-06T09:46:58;19.80;90.50
10538;DHT22;5317;49.048;8.468;2023-08-06T09:49:26;19.70;90.30
10538;DHT22;5317;49.048;8.468;2023-08-06T09:51:54;19.40;90.30
10538;DHT22;5317;49.048;8.468;2023-08-06T09:54:24;19.50;90.60
10538;DHT22;5317;49.048;8.468;2023-08-06T09:56:55;19.60;90.60
10538;DHT22;5317;49.048;8.468;2023-08-06T09:59:22;19.60;90.40
10538;DHT22;5317;49.048;8.468;2023-08-06T10:01:49;19.60;90.50
10538;DHT22;5317;49.048;8.468;2023-08-06T10:04:16;19.40;90.30
10538;DHT22;5317;49.048;8.468;2023-08-06T10:06:46;19.30;90.40
10538;DHT22;5317;49.048;8.468;2023-08-06T10:09:14;19.20;90.40
10538;DHT22;5317;49.048;8.468;2023-08-06T10:11:42;19.20;90.90
10538;DHT22;5317;49.048;8.468;2023-08-06T10:14:14;19.20;90.90
10538;DHT22;5317;49.048;8.468;2023-08-06T10:16:42;19.20;90.90
10538;DHT22;5317;49.048;8.468;2023-08-06T10:19:10;19.20;91.00
10538;DHT22;5317;49.048;8.468;2023-08-06T10:21:39;19.20;91.00
10538;DHT22;5317;49.048;8.468;2023-08-06T10:24:07;19.30;91.00
10538;DHT22;5317;49.048;8.468;2023-08-06T10:26:36;19.20;91.00
10538;DHT22;5317;49.048;8.468;2023-08-06T10:29:37;19.00;91.00
10538;DHT22;5317;49.048;8.468;2023-08-06T10:32:05;18.90;91.20
10538;DHT22;5317;49.048;8.468;2023-08-06T10:34:53;18.80;91.40
10538;DHT22;5317;49.048;8.468;2023-08-06T10:37:21;18.70;91.70
10538;DHT22;5317;49.048;8.468;2023-08-06T10:39:49;18.70;91.60
10538;DHT22;5317;49.048;8.468;2023-08-06T10:42:20;18.90;91.80
10538;DHT22;5317;49.048;8.468;2023-08-06T10:45:13;19.00;91.50
10538;DHT22;5317;49.048;8.468;2023-08-06T10:47:40;19.00;91.50
10538;DHT22;5317;49.048;8.468;2023-08-06T10:50:11;19.00;90.90
10538;DHT22;5317;49.048;8.468;2023-08-06T10:52:38;18.90;91.00
10538;DHT22;5317;49.048;8.468;2023-08-06T10:55:05;18.90;91.00
10538;DHT22;5317;49.048;8.468;2023-08-06T10:57:32;18.90;90.60
10538;DHT22;5317;49.048;8.468;2023-08-06T10:59:59;18.80;90.70
10538;DHT22;5317;49.048;8.468;2023-08-06T11:02:28;18.70;90.80
10538;DHT22;5317;49.048;8.468;2023-08-06T11:04:55;18.70;91.50
10538;DHT22;5317;49.048;8.468;2023-08-06T11:07:21;18.70;90.80
10538;DHT22;5317;49.048;8.468;2023-08-06T11:09:50;18.70;90.70
10538;DHT22;5317;49.048;8.468;2023-08-06T11:12:18;18.60;90.70
10538;DHT22;5317;49.048;8.468;2023-08-06T11:14:50;18.50;90.90
10538;DHT22;5317;49.048;8.468;2023-08-06T11:17:17;18.50;91.00
10538;DHT22;5317;49.048;8.468;2023-08-06T11:19:45;18.50;90.80
10538;DHT22;5317;49.048;8.468;2023-08-06T11:22:13;18.60;90.70
10538;DHT22;5317;49.048;8.468;2023-08-06T11:24:40;18.60;90.90
10538;DHT22;5317;49.048;8.468;2023-08-06T11:27:11;18.60;90.60
10538;DHT22;5317;49.048;8.468;2023-08-06T11:29:39;18.50;90.70
10538;DHT22;5317;49.048;8.468;2023-08-06T11:32:07;18.60;90.60
10538;DHT22;5317;49.048;8.468;2023-08-06T11:34:34;18.50;90.50
10538;DHT22;5317;49.048;8.468;2023-08-06T11:37:02;18.50;90.60
10538;DHT22;5317;49.048;8.468;2023-08-06T11:39:31;18.50;90.60
10538;DHT22;5317;49.048;8.468;2023-08-06T11:41:58;18.60;90.30
10538;DHT22;5317;49.048;8.468;2023-08-06T11:44:30;18.60;90.10
10538;DHT22;5317;49.048;8.468;2023-08-06T11:46:58;18.60;90.00
10538;DHT22;5317;49.048;8.468;2023-08-06T11:49:40;18.60;89.70
10538;DHT22;5317;49.048;8.468;2023-08-06T11:52:14;18.60;89.70
10538;DHT22;5317;49.048;8.468;2023-08-06T11:54:43;18.60;90.00
10538;DHT22;5317;49.048;8.468;2023-08-06T11:57:11;18.60;89.10
10538;DHT22;5317;49.048;8.468;2023-08-06T11:59:38;18.60;88.70
10538;DHT22;5317;49.048;8.468;2023-08-06T12:02:08;18.60;89.20
10538;DHT22;5317;49.048;8.468;2023-08-06T12:05:00;18.60;89.30
10538;DHT22;5317;49.048;8.468;2023-08-06T12:07:30;18.70;89.10
10538;DHT22;5317;49.048;8.468;2023-08-06T12:09:57;18.80;88.40
10538;DHT22;5317;49.048;8.468;2023-08-06T12:12:24;18.80;87.90
10538;DHT22;5317;49.048;8.468;2023-08-06T12:14:51;18.90;88.20
10538;DHT22;5317;49.048;8.468;2023-08-06T12:17:18;18.80;86.40
10538;DHT22;5317;49.048;8.468;2023-08-06T12:19:45;18.80;87.00
10538;DHT22;5317;49.048;8.468;2023-08-06T12:22:12;18.90;87.10
10538;DHT22;5317;49.048;8.468;2023-08-06T12:24:41;19.00;86.40
10538;DHT22;5317;49.048;8.468;2023-08-06T12:27:08;18.90;86.40
10538;DHT22;5317;49.048;8.468;2023-08-06T12:29:35;19.00;86.50
10538;DHT22;5317;49.048;8.468;2023-08-06T12:32:03;19.10;86.60
10538;DHT22;5317;49.048;8.468;2023-08-06T12:34:30;19.10;86.30
10538;DHT22;5317;49.048;8.468;2023-08-06T12:36:57;19.20;86.00
10538;DHT22;5317;49.048;8.468;2023-08-06T12:39:24;19.20;85.10
10538;DHT22;5317;49.048;8.468;2023-08-06T12:41:52;19.20;85.90
10538;DHT22;5317;49.048;8.468;2023-08-06T12:44:19;19.20;85.20
10538;DHT22;5317;49.048;8.468;2023-08-06T12:46:45;19.10;85.60
10538;DHT22;5317;49.048;8.468;2023-08-06T12:49:12;19.10;85.30
10538;DHT22;5317;49.048;8.468;2023-08-06T12:51:39;19.20;85.30
10538;DHT22;5317;49.048;8.468;2023-08-06T12:54:06;19.20;85.40
10538;DHT22;5317;49.048;8.468;2023-08-06T12:56:33;19.20;85.30
10538;DHT22;5317;49.048;8.468;2023-08-06T12:59:02;19.30;85.30
10538;DHT22;5317;49.048;8.468;2023-08-06T13:01:28;19.50;85.20
10538;DHT22;5317;49.048;8.468;2023-08-06T13:03:55;19.50;85.00
10538;DHT22;5317;49.048;8.468;2023-08-06T13:06:22;19.60;85.20
10538;DHT22;5317;49.048;8.468;2023-08-06T13:08:49;19.70;83.90
10538;DHT22;5317;49.048;8.468;2023-08-06T13:11:16;19.70;83.40
10538;DHT22;5317;49.048;8.468;2023-08-06T13:13:43;19.90;83.30
10538;DHT22;5317;49.048;8.468;2023-08-06T13:16:11;20.00;83.20
10538;DHT22;5317;49.048;8.468;2023-08-06T13:18:37;20.20;82.70
10538;DHT22;5317;49.048;8.468;2023-08-06T13:21:04;20.30;81.40
10538;DHT22;5317;49.048;8.468;2023-08-06T13:23:31;20.50;80.50
10538;DHT22;5317;49.048;8.468;2023-08-06T13:25:58;20.70;81.40
10538;DHT22;5317;49.048;8.468;2023-08-06T13:28:25;20.80;78.90
10538;DHT22;5317;49.048;8.468;2023-08-06T13:30:52;20.90;79.10
10538;DHT22;5317;49.048;8.468;2023-08-06T13:33:20;20.90;78.90
10538;DHT22;5317;49.048;8.468;2023-08-06T13:35:47;20.80;77.20
10538;DHT22;5317;49.048;8.468;2023-08-06T13:38:16;20.80;78.30
10538;DHT22;5317;49.048;8.468;2023-08-06T13:40:42;20.90;78.40
10538;DHT22;5317;49.048;8.468;2023-08-06T13:43:09;21.00;78.20
10538;DHT22;5317;49.048;8.468;2023-08-06T13:45:36;20.90;77.30
10538;DHT22;5317;49.048;8.468;2023-08-06T13:48:04;20.90;77.20
10538;DHT22;5317;49.048;8.468;2023-08-06T13:50:33;20.90;76.80
10538;DHT22;5317;49.048;8.468;2023-08-06T13:53:00;20.80;76.10
10538;DHT22;5317;49.048;8.468;2023-08-06T13:55:27;20.70;76.70
10538;DHT22;5317;49.048;8.468;2023-08-06T13:57:55;20.60;77.00
10538;DHT22;5317;49.048;8.468;2023-08-06T14:00:22;20.60;77.00
10538;DHT22;5317;49.048;8.468;2023-08-06T14:02:48;20.60;77.70
10538;DHT22;5317;49.048;8.468;2023-08-06T14:05:15;20.70;77.70
10538;DHT22;5317;49.048;8.468;2023-08-06T14:07:43;20.80;76.70
10538;DHT22;5317;49.048;8.468;2023-08-06T14:10:10;20.60;76.10
10538;DHT22;5317;49.048;8.468;2023-08-06T14:12:37;20.60;75.50
10538;DHT22;5317;49.048;8.468;2023-08-06T14:15:04;20.60;75.80
10538;DHT22;5317;49.048;8.468;2023-08-06T14:17:31;20.60;76.10
10538;DHT22;5317;49.048;8.468;2023-08-06T14:19:58;20.80;76.20
10538;DHT22;5317;49.048;8.468;2023-08-06T14:22:26;20.80;74.40
10538;DHT22;5317;49.048;8.468;2023-08-06T14:24:54;20.80;73.90
10538;DHT22;5317;49.048;8.468;2023-08-06T14:27:21;20.90;73.80
10538;DHT22;5317;49.048;8.468;2023-08-06T14:29:48;20.90;72.70
10538;DHT22;5317;49.048;8.468;2023-08-06T14:32:15;21.00;72.60
10538;DHT22;5317;49.048;8.468;2023-08-06T14:34:43;21.00;72.20
10538;DHT22;5317;49.048;8.468;2023-08-06T14:37:10;21.10;71.90
10538;DHT22;5317;49.048;8.468;2023-08-06T14:39:37;21.20;71.40
10538;DHT22;5317;49.048;8.468;2023-08-06T14:42:05;21.20;71.90
10538;DHT22;5317;49.048;8.468;2023-08-06T14:44:32;21.10;71.60
10538;DHT22;5317;49.048;8.468;2023-08-06T14:46:59;21.10;71.90
10538;DHT22;5317;49.048;8.468;2023-08-06T14:49:26;20.90;72.80
10538;DHT22;5317;49.048;8.468;2023-08-06T14:51:53;20.90;73.00
10538;DHT22;5317;49.048;8.468;2023-08-06T14:54:19;20.90;73.50
10538;DHT22;5317;49.048;8.468;2023-08-06T14:56:46;20.80;73.90
10538;DHT22;5317;49.048;8.468;2023-08-06T14:59:14;20.80;73.70
10538;DHT22;5317;49.048;8.468;2023-08-06T15:01:41;20.70;73.50
10538;DHT22;5317;49.048;8.468;2023-08-06T15:04:08;20.80;72.20
10538;DHT22;5317;49.048;8.468;2023-08-06T15:06:35;20.80;72.20
10538;DHT22;5317;49.048;8.468;2023-08-06T15:09:02;20.80;70.70
10538;DHT22;5317;49.048;8.468;2023-08-06T15:11:28;20.80;70.60
10538;DHT22;5317;49.048;8.468;2023-08-06T15:13:55;20.80;70.20
10538;DHT22;5317;49.048;8.468;2023-08-06T15:16:25;20.80;70.80
10538;DHT22;5317;49.048;8.468;2023-08-06T15:18:52;20.90;70.90
10538;DHT22;5317;49.048;8.468;2023-08-06T15:21:18;20.90;70.70
10538;DHT22;5317;49.048;8.468;2023-08-06T15:23:45;20.80;71.00
10538;DHT22;5317;49.048;8.468;2023-08-06T15:26:12;20.90;70.90
10538;DHT22;5317;49.048;8.468;2023-08-06T15:28:39;20.80;71.40
10538;DHT22;5317;49.048;8.468;2023-08-06T15:31:06;20.90;71.70
10538;DHT22;5317;49.048;8.468;2023-08-06T15:33:35;21.00;72.70
10538;DHT22;5317;49.048;8.468;2023-08-06T15:36:02;20.90;72.80
10538;DHT22;5317;49.048;8.468;2023-08-06T15:38:29;20.80;73.70
10538;DHT22;5317;49.048;8.468;2023-08-06T15:40:56;20.60;74.20
10538;DHT22;5317;49.048;8.468;2023-08-06T15:43:23;20.50;76.00
10538;DHT22;5317;49.048;8.468;2023-08-06T15:45:50;20.40;77.00
10538;DHT22;5317;49.048;8.468;2023-08-06T15:48:16;20.40;78.50